Time;durP1;ratioP1;P1;durP2;ratioP2;P2;SDS_P1;SDS_P2;PMS_P1;PMS_P2;Temp;Humidity;BMP_temperature;BMP_pressure;BME280_temperature;BME280_humidity;BME280_pressure;Samples;Min_cycle;Max_cycle;Signal;HPM_P1;HPM_P2
2023/04/06 00:01:33;;;;;;;12.13;8.35;;;;;;;;;;5094695;28;20036;-77
2023/04/06 00:03:59;;;;;;;11.23;8.27;;;;;;;;;;5080846;28;20044;-77
2023/04/06 00:06:26;;;;;;;14.40;8.98;;;;;;;;;;5095536;28;20105;-77
2023/04/06 00:08:52;;;;;;;11.35;8.30;;;;;;;;;;5096040;28;20048;-77
2023/04/06 00:11:18;;;;;;;11.82;8.52;;;;;;;;;;5092835;28;20528;-77
2023/04/06 00:13:45;;;;;;;11.88;8.50;;;;;;;;;;5094840;28;20051;-77
2023/04/06 00:16:11;;;;;;;11.93;8.40;;;;;;;;;;5095108;28;20398;-77
2023/04/06 00:18:37;;;;;;;11.82;8.30;;;;;;;;;;5095966;28;20406;-77
2023/04/06 00:21:04;;;;;;;11.43;8.45;;;;;;;;;;5095605;28;20062;-77
2023/04/06 00:23:30;;;;;;;12.32;8.95;;;;;;;;;;5096035;28;20048;-77
2023/04/06 00:25:56;;;;;;;11.20;8.32;;;;;;;;;;5095723;28;20050;-77
2023/04/06 00:28:25;;;;;;;10.57;8.32;;;;;;;;;;5078056;28;20048;-77
2023/04/06 00:30:52;;;;;;;11.77;8.18;;;;;;;;;;5083888;28;20050;-77
2023/04/06 00:33:19;;;;;;;11.32;8.32;;;;;;;;;;5081654;28;20043;-75
2023/04/06 00:35:45;;;;;;;12.20;8.80;;;;;;;;;;5089993;28;20040;-76
2023/04/06 00:38:12;;;;;;;12.75;8.57;;;;;;;;;;5095604;28;20081;-76
2023/04/06 00:40:39;;;;;;;12.63;8.35;;;;;;;;;;5094646;28;20410;-76
2023/04/06 00:43:06;;;;;;;12.13;8.32;;;;;;;;;;5089727;28;20058;-76
2023/04/06 00:45:33;;;;;;;11.07;8.45;;;;;;;;;;5089493;28;20048;-76
2023/04/06 00:47:59;;;;;;;13.20;9.30;;;;;;;;;;5091249;28;20406;-76
2023/04/06 00:50:26;;;;;;;11.20;8.18;;;;;;;;;;5090194;28;20075;-76
2023/04/06 00:52:52;;;;;;;10.15;7.95;;;;;;;;;;5089359;28;20047;-77
2023/04/06 00:55:18;;;;;;;10.77;7.78;;;;;;;;;;5089845;28;20040;-77
2023/04/06 00:57:44;;;;;;;9.57;8.10;;;;;;;;;;5090551;28;20040;-77
2023/04/06 01:00:10;;;;;;;12.25;7.70;;;;;;;;;;5093281;28;20474;-77
2023/04/06 01:02:37;;;;;;;12.48;8.13;;;;;;;;;;5094123;28;20530;-77
2023/04/06 01:05:03;;;;;;;11.43;8.57;;;;;;;;;;5081485;28;20072;-77
2023/04/06 01:07:29;;;;;;;10.02;7.93;;;;;;;;;;5094443;28;20036;-76
2023/04/06 01:09:55;;;;;;;9.57;7.78;;;;;;;;;;5094259;28;20414;-77
2023/04/06 01:12:21;;;;;;;11.38;8.35;;;;;;;;;;5093322;28;20377;-76
2023/04/06 01:14:47;;;;;;;9.68;7.70;;;;;;;;;;5090389;28;20040;-76
2023/04/06 01:17:13;;;;;;;10.02;8.13;;;;;;;;;;5079992;28;20083;-76
2023/04/06 01:19:40;;;;;;;9.55;8.02;;;;;;;;;;5092071;28;20091;-76
2023/04/06 01:22:06;;;;;;;9.35;7.55;;;;;;;;;;5092659;28;20058;-76
2023/04/06 01:24:33;;;;;;;11.95;8.60;;;;;;;;;;5091071;28;20036;-77
2023/04/06 01:26:59;;;;;;;10.55;7.97;;;;;;;;;;5089156;28;20360;-77
2023/04/06 01:29:25;;;;;;;9.90;8.07;;;;;;;;;;5082167;28;20094;-76
2023/04/06 01:31:51;;;;;;;11.27;8.15;;;;;;;;;;5091161;28;20048;-77
2023/04/06 01:34:17;;;;;;;10.80;8.38;;;;;;;;;;5086665;28;20032;-77
2023/04/06 01:36:43;;;;;;;10.13;7.93;;;;;;;;;;5084530;28;20471;-77
2023/04/06 01:39:09;;;;;;;10.30;7.80;;;;;;;;;;5089398;28;20040;-77
2023/04/06 01:41:35;;;;;;;11.75;8.13;;;;;;;;;;5093812;28;20047;-76
2023/04/06 01:44:02;;;;;;;9.38;7.43;;;;;;;;;;5080067;28;20048;-77
2023/04/06 01:46:28;;;;;;;9.77;7.70;;;;;;;;;;5089471;28;20048;-77
2023/04/06 01:48:54;;;;;;;10.07;7.82;;;;;;;;;;5085178;28;20553;-77
2023/04/06 01:51:20;;;;;;;12.40;7.95;;;;;;;;;;5084362;28;20058;-77
2023/04/06 01:53:46;;;;;;;15.77;8.32;;;;;;;;;;5089974;28;20040;-77
2023/04/06 01:56:12;;;;;;;10.05;8.13;;;;;;;;;;5091542;28;20072;-77
2023/04/06 01:58:38;;;;;;;8.98;7.47;;;;;;;;;;5091190;28;20465;-77
2023/04/06 02:01:04;;;;;;;12.52;8.27;;;;;;;;;;5093895;28;20044;-77
2023/04/06 02:03:31;;;;;;;12.80;7.90;;;;;;;;;;5075520;28;20044;-77
2023/04/06 02:05:57;;;;;;;10.73;7.70;;;;;;;;;;5093634;28;20048;-77
2023/04/06 02:08:23;;;;;;;10.10;8.18;;;;;;;;;;5083057;28;20123;-77
2023/04/06 02:10:49;;;;;;;10.90;7.57;;;;;;;;;;5074767;28;20083;-77
2023/04/06 02:13:15;;;;;;;10.25;7.63;;;;;;;;;;5076468;28;20044;-77
2023/04/06 02:15:41;;;;;;;10.45;7.72;;;;;;;;;;5093098;28;20072;-77
2023/04/06 02:18:07;;;;;;;10.32;7.55;;;;;;;;;;5093525;28;20051;-76
2023/04/06 02:20:33;;;;;;;9.30;7.80;;;;;;;;;;5084762;28;20048;-75
2023/04/06 02:23:00;;;;;;;11.88;7.57;;;;;;;;;;5091219;28;20096;-76
2023/04/06 02:25:26;;;;;;;12.05;7.80;;;;;;;;;;5093570;28;20046;-76
2023/04/06 02:27:52;;;;;;;9.88;7.38;;;;;;;;;;5080831;28;20044;-76
2023/04/06 02:30:18;;;;;;;9.73;7.90;;;;;;;;;;5084126;28;20052;-77
2023/04/06 02:32:44;;;;;;;10.63;7.88;;;;;;;;;;5094714;28;20048;-76
2023/04/06 02:35:10;;;;;;;12.75;7.60;;;;;;;;;;5089979;28;20062;-77
2023/04/06 02:37:36;;;;;;;9.18;6.93;;;;;;;;;;5079812;28;20439;-76
2023/04/06 02:40:02;;;;;;;10.13;7.60;;;;;;;;;;5086207;28;20048;-76
2023/04/06 02:42:29;;;;;;;11.00;7.50;;;;;;;;;;5095229;28;20037;-76
2023/04/06 02:44:55;;;;;;;10.57;8.02;;;;;;;;;;5090077;28;20098;-76
2023/04/06 02:47:21;;;;;;;9.50;8.02;;;;;;;;;;5093837;28;20044;-76
2023/04/06 02:49:47;;;;;;;9.38;7.75;;;;;;;;;;5088588;28;20040;-76
2023/04/06 02:52:13;;;;;;;10.13;7.57;;;;;;;;;;5092307;28;20048;-76
2023/04/06 02:54:39;;;;;;;11.98;7.70;;;;;;;;;;5090973;28;20433;-76
2023/04/06 02:57:05;;;;;;;9.30;7.82;;;;;;;;;;5093116;28;20040;-76
2023/04/06 02:59:31;;;;;;;9.52;7.45;;;;;;;;;;5088556;28;20044;-76
2023/04/06 03:01:58;;;;;;;9.98;7.10;;;;;;;;;;5095378;28;20040;-76
2023/04/06 03:04:25;;;;;;;9.85;7.45;;;;;;;;;;5087808;28;20120;-76
2023/04/06 03:06:51;;;;;;;10.95;7.68;;;;;;;;;;5079118;28;20052;-76
2023/04/06 03:09:17;;;;;;;8.70;7.60;;;;;;;;;;5096676;28;20072;-76
2023/04/06 03:11:43;;;;;;;10.25;7.50;;;;;;;;;;5079249;28;20052;-76
2023/04/06 03:14:10;;;;;;;9.10;7.38;;;;;;;;;;5080619;28;20036;-76
2023/04/06 03:16:36;;;;;;;10.60;7.80;;;;;;;;;;5092548;28;20545;-76
2023/04/06 03:19:02;;;;;;;10.52;8.00;;;;;;;;;;5093256;28;20041;-76
2023/04/06 03:21:28;;;;;;;11.25;7.57;;;;;;;;;;5092525;28;20043;-76
2023/04/06 03:23:54;;;;;;;8.32;7.03;;;;;;;;;;5096732;28;20056;-76
2023/04/06 03:26:21;;;;;;;10.70;7.32;;;;;;;;;;5088292;28;20145;-76
2023/04/06 03:28:47;;;;;;;12.13;7.28;;;;;;;;;;5095793;28;20051;-76
2023/04/06 03:31:13;;;;;;;8.80;6.75;;;;;;;;;;5094706;28;20052;-76
2023/04/06 03:33:39;;;;;;;9.60;6.75;;;;;;;;;;5093670;28;20036;-76
2023/04/06 03:36:06;;;;;;;8.90;7.40;;;;;;;;;;5092728;28;20122;-76
2023/04/06 03:38:32;;;;;;;7.55;6.70;;;;;;;;;;5084758;28;20036;-76
2023/04/06 03:40:59;;;;;;;10.32;7.28;;;;;;;;;;5081103;28;20102;-76
2023/04/06 03:43:25;;;;;;;10.98;8.10;;;;;;;;;;5090581;28;20047;-76
2023/04/06 03:45:51;;;;;;;9.10;7.20;;;;;;;;;;5092904;28;20051;-76
2023/04/06 03:48:17;;;;;;;10.50;7.47;;;;;;;;;;5091681;28;20051;-76
2023/04/06 03:50:43;;;;;;;10.13;7.43;;;;;;;;;;5079089;28;20052;-76
2023/04/06 03:53:10;;;;;;;8.88;7.13;;;;;;;;;;5096227;28;20044;-76
2023/04/06 03:55:36;;;;;;;9.48;7.22;;;;;;;;;;5094009;28;20044;-76
2023/04/06 03:58:02;;;;;;;9.10;7.35;;;;;;;;;;5094288;28;20123;-76
2023/04/06 04:00:28;;;;;;;10.30;7.68;;;;;;;;;;5091505;28;20048;-76
2023/04/06 04:02:54;;;;;;;9.93;7.65;;;;;;;;;;5094750;28;20052;-76
2023/04/06 04:05:24;;;;;;;9.13;7.32;;;;;;;;;;5095420;28;20050;-76
2023/04/06 04:07:51;;;;;;;8.23;7.05;;;;;;;;;;5088043;28;20170;-76
2023/04/06 04:10:17;;;;;;;12.73;7.60;;;;;;;;;;5077744;28;20474;-76
2023/04/06 04:12:43;;;;;;;11.35;7.70;;;;;;;;;;5089567;28;20042;-76
2023/04/06 04:15:09;;;;;;;11.05;9.30;;;;;;;;;;5091459;28;20501;-76
2023/04/06 04:17:35;;;;;;;11.63;9.48;;;;;;;;;;5094750;28;20079;-76
2023/04/06 04:20:01;;;;;;;12.30;8.82;;;;;;;;;;5095403;28;20074;-76
2023/04/06 04:22:27;;;;;;;12.73;7.95;;;;;;;;;;5085714;28;20424;-76
2023/04/06 04:24:54;;;;;;;11.50;8.05;;;;;;;;;;5084675;28;20482;-76
2023/04/06 04:27:20;;;;;;;15.13;8.07;;;;;;;;;;5090110;28;20044;-76
2023/04/06 04:29:46;;;;;;;10.32;7.47;;;;;;;;;;5088237;28;20494;-76
2023/04/06 04:32:12;;;;;;;9.45;6.70;;;;;;;;;;5094916;28;20093;-76
2023/04/06 04:34:40;;;;;;;11.30;8.48;;;;;;;;;;5094319;28;20123;-76
2023/04/06 04:37:06;;;;;;;11.07;8.00;;;;;;;;;;5085718;28;20069;-76
2023/04/06 04:39:32;;;;;;;11.98;8.00;;;;;;;;;;5088549;28;20039;-76
2023/04/06 04:41:58;;;;;;;10.90;8.05;;;;;;;;;;5081565;28;20037;-76
2023/04/06 04:44:24;;;;;;;11.82;8.30;;;;;;;;;;5084222;28;20043;-76
2023/04/06 04:46:50;;;;;;;10.77;8.20;;;;;;;;;;5091484;28;20044;-76
2023/04/06 04:49:17;;;;;;;10.80;7.30;;;;;;;;;;5081421;28;20039;-74
2023/04/06 04:51:43;;;;;;;9.70;7.88;;;;;;;;;;5093501;28;20040;-76
2023/04/06 04:54:09;;;;;;;10.13;7.32;;;;;;;;;;5092277;28;20051;-76
2023/04/06 04:56:35;;;;;;;12.07;7.40;;;;;;;;;;5086582;28;20097;-76
2023/04/06 04:59:01;;;;;;;11.60;8.30;;;;;;;;;;5091916;28;20040;-76
2023/04/06 05:01:27;;;;;;;10.40;7.78;;;;;;;;;;5094936;28;20068;-76
2023/04/06 05:03:53;;;;;;;11.43;8.05;;;;;;;;;;5096750;28;20066;-76
2023/04/06 05:06:19;;;;;;;14.38;8.02;;;;;;;;;;5087847;28;20044;-75
2023/04/06 05:08:45;;;;;;;10.93;7.82;;;;;;;;;;5077745;28;20086;-76
2023/04/06 05:11:11;;;;;;;10.15;7.55;;;;;;;;;;5087734;28;20044;-76
2023/04/06 05:13:37;;;;;;;13.25;8.10;;;;;;;;;;5094690;28;20154;-76
2023/04/06 05:16:03;;;;;;;12.70;8.15;;;;;;;;;;5086450;28;20474;-76
2023/04/06 05:18:32;;;;;;;11.45;7.97;;;;;;;;;;5082029;28;20482;-76
2023/04/06 05:20:59;;;;;;;11.30;8.43;;;;;;;;;;5078929;28;20083;-76
2023/04/06 05:23:25;;;;;;;11.23;7.80;;;;;;;;;;5076871;28;20072;-76
2023/04/06 05:25:51;;;;;;;12.43;7.95;;;;;;;;;;5094676;28;20119;-76
2023/04/06 05:28:17;;;;;;;11.85;8.25;;;;;;;;;;5083585;28;20036;-76
2023/04/06 05:30:45;;;;;;;13.45;8.70;;;;;;;;;;5076170;28;20419;-77
2023/04/06 05:33:12;;;;;;;12.63;8.48;;;;;;;;;;5090886;28;20039;-76
2023/04/06 05:35:40;;;;;;;10.80;7.53;;;;;;;;;;5086402;28;20052;-76
2023/04/06 05:38:09;;;;;;;9.98;7.30;;;;;;;;;;5093769;28;20577;-76
2023/04/06 05:40:40;;;;;;;8.82;7.63;;;;;;;;;;5080440;28;20382;-76
2023/04/06 05:43:06;;;;;;;11.90;7.82;;;;;;;;;;5083372;28;20044;-77
2023/04/06 05:45:32;;;;;;;12.02;7.95;;;;;;;;;;5087015;28;20067;-76
2023/04/06 05:47:58;;;;;;;12.25;7.93;;;;;;;;;;5086707;28;20087;-76
2023/04/06 05:50:24;;;;;;;12.57;8.25;;;;;;;;;;5077693;28;20072;-76
2023/04/06 05:52:50;;;;;;;12.43;8.43;;;;;;;;;;5093986;28;20047;-76
2023/04/06 05:55:16;;;;;;;10.25;7.82;;;;;;;;;;5070579;28;20072;-76
2023/04/06 05:57:42;;;;;;;9.20;7.57;;;;;;;;;;5093464;28;20079;-76
2023/04/06 06:00:09;;;;;;;13.90;8.35;;;;;;;;;;5092952;28;20064;-76
2023/04/06 06:02:36;;;;;;;11.38;8.38;;;;;;;;;;5093840;28;20036;-76
2023/04/06 06:05:02;;;;;;;11.32;8.18;;;;;;;;;;5091734;28;20072;-76
2023/04/06 06:07:28;;;;;;;11.68;9.00;;;;;;;;;;5076829;28;20049;-76
2023/04/06 06:09:57;;;;;;;11.18;7.78;;;;;;;;;;5088135;28;20040;-77
2023/04/06 06:12:23;;;;;;;11.48;8.00;;;;;;;;;;5093481;28;20048;-77
2023/04/06 06:14:49;;;;;;;11.30;7.95;;;;;;;;;;5091905;28;20089;-76
2023/04/06 06:17:15;;;;;;;13.38;7.97;;;;;;;;;;5083814;28;20105;-76
2023/04/06 06:19:42;;;;;;;9.75;8.00;;;;;;;;;;5083541;28;20090;-76
2023/04/06 06:22:08;;;;;;;11.32;8.10;;;;;;;;;;5085688;28;20040;-76
2023/04/06 06:24:34;;;;;;;14.98;8.57;;;;;;;;;;5081597;28;20044;-75
2023/04/06 06:27:00;;;;;;;13.40;9.10;;;;;;;;;;5085845;28;20040;-76
2023/04/06 06:29:26;;;;;;;12.70;9.00;;;;;;;;;;5078670;28;20040;-76
2023/04/06 06:31:52;;;;;;;11.95;9.23;;;;;;;;;;5093839;28;20051;-76
2023/04/06 06:34:18;;;;;;;13.25;9.48;;;;;;;;;;5095709;28;20036;-75
2023/04/06 06:36:44;;;;;;;14.13;9.20;;;;;;;;;;5091374;28;20048;-76
2023/04/06 06:39:10;;;;;;;13.27;8.70;;;;;;;;;;5093137;28;20543;-76
2023/04/06 06:41:36;;;;;;;12.43;9.15;;;;;;;;;;5091834;28;20475;-75
2023/04/06 06:44:02;;;;;;;12.68;8.75;;;;;;;;;;5090650;28;20071;-75
2023/04/06 06:46:28;;;;;;;12.65;9.20;;;;;;;;;;5077116;28;20090;-75
2023/04/06 06:48:57;;;;;;;11.93;8.77;;;;;;;;;;5074882;28;20051;-75
2023/04/06 06:51:23;;;;;;;11.85;8.80;;;;;;;;;;5091649;28;20044;-75
2023/04/06 06:53:49;;;;;;;11.63;8.40;;;;;;;;;;5093212;28;20471;-76
2023/04/06 06:56:15;;;;;;;12.35;8.55;;;;;;;;;;5091480;28;20075;-75
2023/04/06 06:58:41;;;;;;;12.45;8.18;;;;;;;;;;5076713;28;20033;-76
2023/04/06 07:01:07;;;;;;;14.43;9.25;;;;;;;;;;5090392;28;20123;-76
2023/04/06 07:03:33;;;;;;;10.93;8.50;;;;;;;;;;5088023;28;20040;-76
2023/04/06 07:06:00;;;;;;;15.02;9.40;;;;;;;;;;5093328;28;20060;-76
2023/04/06 07:08:26;;;;;;;12.27;8.88;;;;;;;;;;5093010;28;20478;-76
2023/04/06 07:10:52;;;;;;;11.52;8.85;;;;;;;;;;5082777;28;20070;-76
2023/04/06 07:13:22;;;;;;;13.90;8.90;;;;;;;;;;5089214;28;20040;-76
2023/04/06 07:15:48;;;;;;;14.05;9.15;;;;;;;;;;5096101;28;20056;-76
2023/04/06 07:18:14;;;;;;;13.15;9.10;;;;;;;;;;5083024;28;20087;-77
2023/04/06 07:20:40;;;;;;;23.33;8.48;;;;;;;;;;5084661;28;20059;-76
2023/04/06 07:23:07;;;;;;;13.07;8.68;;;;;;;;;;5096897;28;20052;-77
2023/04/06 07:25:33;;;;;;;10.35;8.10;;;;;;;;;;5095354;28;20090;-76
2023/04/06 07:27:59;;;;;;;11.18;8.48;;;;;;;;;;5100593;28;20069;-76
2023/04/06 07:30:28;;;;;;;10.80;8.57;;;;;;;;;;5092470;28;20048;-76
2023/04/06 07:32:55;;;;;;;11.50;8.70;;;;;;;;;;5087461;28;20044;-75
2023/04/06 07:35:22;;;;;;;12.13;8.50;;;;;;;;;;5103188;28;20031;-75
2023/04/06 07:37:48;;;;;;;13.65;8.70;;;;;;;;;;5083723;28;20121;-75
2023/04/06 07:40:17;;;;;;;12.73;8.85;;;;;;;;;;5086865;28;20498;-75
2023/04/06 07:42:43;;;;;;;10.95;8.48;;;;;;;;;;5098481;28;20090;-76
2023/04/06 07:45:10;;;;;;;12.02;8.65;;;;;;;;;;5077303;28;20105;-77
2023/04/06 07:47:36;;;;;;;11.75;8.02;;;;;;;;;;5085162;28;20394;-76
2023/04/06 07:50:02;;;;;;;12.60;8.43;;;;;;;;;;5078540;28;20398;-76
2023/04/06 07:52:29;;;;;;;12.45;8.50;;;;;;;;;;5059359;28;20044;-76
2023/04/06 07:54:55;;;;;;;14.05;8.68;;;;;;;;;;5085851;28;20040;-76
2023/04/06 07:57:21;;;;;;;13.32;8.32;;;;;;;;;;5096203;28;20036;-76
2023/04/06 07:59:47;;;;;;;11.95;8.88;;;;;;;;;;5090888;28;20096;-77
2023/04/06 08:02:13;;;;;;;11.75;7.80;;;;;;;;;;5090480;28;20539;-76
2023/04/06 08:04:39;;;;;;;11.50;8.55;;;;;;;;;;5089490;28;20036;-76
2023/04/06 08:07:05;;;;;;;14.27;8.88;;;;;;;;;;5081811;28;20375;-77
2023/04/06 08:09:31;;;;;;;12.40;8.98;;;;;;;;;;5091663;28;20158;-76
2023/04/06 08:11:58;;;;;;;11.55;8.65;;;;;;;;;;5089322;28;20040;-76
2023/04/06 08:14:24;;;;;;;10.63;8.07;;;;;;;;;;5082350;28;20067;-76
2023/04/06 08:16:50;;;;;;;12.45;8.38;;;;;;;;;;5094368;28;20490;-76
2023/04/06 08:19:18;;;;;;;10.48;8.50;;;;;;;;;;5093433;28;20114;-76
2023/04/06 08:21:45;;;;;;;11.50;7.97;;;;;;;;;;5087224;28;20059;-76
2023/04/06 08:24:11;;;;;;;11.23;8.05;;;;;;;;;;5087564;28;20058;-76
2023/04/06 08:26:37;;;;;;;12.93;8.30;;;;;;;;;;5091447;28;20378;-76
2023/04/06 08:29:04;;;;;;;10.45;8.02;;;;;;;;;;5082848;28;20079;-76
2023/04/06 08:31:30;;;;;;;10.93;8.45;;;;;;;;;;5078023;28;20044;-76
2023/04/06 08:33:56;;;;;;;12.23;7.47;;;;;;;;;;5087152;28;20522;-76
2023/04/06 08:36:22;;;;;;;10.98;7.57;;;;;;;;;;5090308;28;20075;-76
2023/04/06 08:38:49;;;;;;;10.60;7.78;;;;;;;;;;5060492;28;20040;-76
2023/04/06 08:41:19;;;;;;;10.68;7.55;;;;;;;;;;5089377;28;20049;-76
2023/04/06 08:43:49;;;;;;;12.60;8.15;;;;;;;;;;5093507;28;20052;-76
2023/04/06 08:46:16;;;;;;;11.43;8.18;;;;;;;;;;5074808;28;20040;-76
2023/04/06 08:48:42;;;;;;;9.80;8.05;;;;;;;;;;5092967;28;20036;-76
2023/04/06 08:51:09;;;;;;;13.02;8.73;;;;;;;;;;5087291;28;20360;-76
2023/04/06 08:53:36;;;;;;;9.43;7.80;;;;;;;;;;5082793;28;20055;-77
2023/04/06 08:56:03;;;;;;;13.25;8.18;;;;;;;;;;5093396;28;20497;-76
2023/04/06 08:58:31;;;;;;;11.07;7.45;;;;;;;;;;5094266;28;20044;-76
2023/04/06 09:00:57;;;;;;;10.30;8.32;;;;;;;;;;5092671;28;20106;-76
2023/04/06 09:03:25;;;;;;;11.35;8.23;;;;;;;;;;5094359;28;20048;-76
2023/04/06 09:05:51;;;;;;;10.40;8.05;;;;;;;;;;5093818;28;20044;-76
2023/04/06 09:08:17;;;;;;;10.73;7.95;;;;;;;;;;5094557;28;20044;-76
2023/04/06 09:10:46;;;;;;;11.55;8.43;;;;;;;;;;5089338;28;20036;-76
2023/04/06 09:13:12;;;;;;;11.35;8.10;;;;;;;;;;5090211;28;20055;-76
2023/04/06 09:15:38;;;;;;;11.57;8.85;;;;;;;;;;5092823;28;20032;-76
2023/04/06 09:18:05;;;;;;;12.80;9.48;;;;;;;;;;5093253;28;20055;-77
2023/04/06 09:20:31;;;;;;;14.90;10.15;;;;;;;;;;5081648;28;20494;-76
2023/04/06 09:22:57;;;;;;;14.48;9.32;;;;;;;;;;5091649;28;20048;-77
2023/04/06 09:25:28;;;;;;;14.52;9.73;;;;;;;;;;5092148;28;20442;-77
2023/04/06 09:28:04;;;;;;;13.52;9.23;;;;;;;;;;5080740;28;20044;-77
2023/04/06 09:30:30;;;;;;;20.13;10.48;;;;;;;;;;5094510;28;20390;-77
2023/04/06 09:32:57;;;;;;;17.25;11.45;;;;;;;;;;5093851;28;20453;-77
2023/04/06 09:35:26;;;;;;;16.52;11.15;;;;;;;;;;5090546;28;20037;-77
2023/04/06 09:37:52;;;;;;;18.33;11.25;;;;;;;;;;5083098;28;20044;-76
2023/04/06 09:40:19;;;;;;;16.15;11.13;;;;;;;;;;5087939;28;20123;-77
2023/04/06 09:42:51;;;;;;;14.05;10.32;;;;;;;;;;5095873;28;20040;-78
2023/04/06 09:45:17;;;;;;;16.92;11.40;;;;;;;;;;5086297;28;20048;-77
2023/04/06 09:47:45;;;;;;;16.15;11.35;;;;;;;;;;5094041;28;20391;-77
2023/04/06 09:50:11;;;;;;;17.50;12.15;;;;;;;;;;5094164;28;20040;-77
2023/04/06 09:52:58;;;;;;;17.08;12.40;;;;;;;;;;5092849;28;20043;-75
2023/04/06 09:55:27;;;;;;;20.35;12.50;;;;;;;;;;5079031;28;20120;-76
2023/04/06 09:57:58;;;;;;;18.02;12.30;;;;;;;;;;5093093;28;20498;-76
2023/04/06 10:00:26;;;;;;;16.15;11.88;;;;;;;;;;5093881;28;20504;-76
2023/04/06 10:03:10;;;;;;;17.63;12.23;;;;;;;;;;5088180;28;20047;-76
2023/04/06 10:05:36;;;;;;;16.75;11.77;;;;;;;;;;5094403;28;20048;-76
2023/04/06 10:08:06;;;;;;;16.92;12.05;;;;;;;;;;5093410;28;20046;-76
2023/04/06 10:10:32;;;;;;;17.17;11.93;;;;;;;;;;5093702;28;20116;-77
2023/04/06 10:12:59;;;;;;;17.85;11.77;;;;;;;;;;5093749;28;20058;-76
2023/04/06 10:15:25;;;;;;;17.20;11.82;;;;;;;;;;5093954;28;20091;-76
2023/04/06 10:17:55;;;;;;;19.42;13.00;;;;;;;;;;5092945;28;20390;-76
2023/04/06 10:20:36;;;;;;;17.88;12.40;;;;;;;;;;5094049;28;20044;-76
2023/04/06 10:23:07;;;;;;;18.88;12.38;;;;;;;;;;5093384;28;20421;-76
2023/04/06 10:25:33;;;;;;;18.75;11.95;;;;;;;;;;5093625;28;20048;-77
2023/04/06 10:28:00;;;;;;;16.48;11.90;;;;;;;;;;5094275;28;20039;-77
2023/04/06 10:30:27;;;;;;;17.08;12.48;;;;;;;;;;5092930;28;20052;-77
2023/04/06 10:32:53;;;;;;;18.13;12.60;;;;;;;;;;5090805;28;20044;-77
2023/04/06 10:35:19;;;;;;;18.58;13.27;;;;;;;;;;5093056;28;20044;-77
2023/04/06 10:37:53;;;;;;;20.88;13.10;;;;;;;;;;5079115;28;20048;-78
2023/04/06 10:40:20;;;;;;;19.90;14.13;;;;;;;;;;5087449;28;20055;-78
2023/04/06 10:42:46;;;;;;;19.77;13.27;;;;;;;;;;5093021;28;20040;-78
2023/04/06 10:45:38;;;;;;;20.85;13.02;;;;;;;;;;5093308;28;20127;-78
2023/04/06 10:48:17;;;;;;;20.42;13.80;;;;;;;;;;5070755;28;20048;-78
2023/04/06 10:50:53;;;;;;;20.02;13.27;;;;;;;;;;5096605;28;20052;-78
2023/04/06 10:53:26;;;;;;;18.60;13.32;;;;;;;;;;5095763;28;20048;-78
2023/04/06 10:55:53;;;;;;;20.30;13.57;;;;;;;;;;5091131;28;20059;-78
2023/04/06 10:58:19;;;;;;;17.80;12.73;;;;;;;;;;5090142;28;20470;-77
2023/04/06 11:00:46;;;;;;;18.98;13.73;;;;;;;;;;5077397;28;20040;-78
2023/04/06 11:03:12;;;;;;;20.48;14.00;;;;;;;;;;5076687;28;20048;-78
2023/04/06 11:05:38;;;;;;;20.65;13.50;;;;;;;;;;5085992;28;20050;-78
2023/04/06 11:08:04;;;;;;;20.05;13.75;;;;;;;;;;5091799;28;20041;-79
2023/04/06 11:10:30;;;;;;;21.67;14.00;;;;;;;;;;5102005;28;20134;-78
2023/04/06 11:12:56;;;;;;;21.88;13.50;;;;;;;;;;5097119;28;20560;-77
2023/04/06 11:15:23;;;;;;;18.45;13.55;;;;;;;;;;5082987;28;20040;-78
2023/04/06 11:17:49;;;;;;;21.23;13.48;;;;;;;;;;5095482;28;20052;-78
2023/04/06 11:20:15;;;;;;;19.33;12.93;;;;;;;;;;5080479;28;20045;-78
2023/04/06 11:22:54;;;;;;;20.55;13.75;;;;;;;;;;5093907;28;20043;-78
2023/04/06 11:25:20;;;;;;;19.77;13.07;;;;;;;;;;5096243;28;20089;-78
2023/04/06 11:27:47;;;;;;;21.58;14.00;;;;;;;;;;5095802;28;20044;-78
2023/04/06 11:30:14;;;;;;;20.70;14.80;;;;;;;;;;5090315;28;20048;-78
2023/04/06 11:32:42;;;;;;;21.42;14.82;;;;;;;;;;5079609;28;20159;-78
2023/04/06 11:35:08;;;;;;;22.48;14.95;;;;;;;;;;5092769;28;20047;-78
2023/04/06 11:37:34;;;;;;;22.73;15.23;;;;;;;;;;5090694;28;20382;-78
2023/04/06 11:40:00;;;;;;;22.30;15.50;;;;;;;;;;5090291;28;20040;-78
2023/04/06 11:42:27;;;;;;;21.45;14.02;;;;;;;;;;5075956;28;20402;-77
2023/04/06 11:44:57;;;;;;;23.70;15.73;;;;;;;;;;5085311;28;20127;-78
2023/04/06 11:47:34;;;;;;;25.88;15.70;;;;;;;;;;5094664;28;20040;-78
2023/04/06 11:50:07;;;;;;;22.65;15.27;;;;;;;;;;5086596;28;20032;-77
2023/04/06 11:52:33;;;;;;;23.80;15.65;;;;;;;;;;5095924;28;20110;-78
2023/04/06 11:55:10;;;;;;;24.90;15.40;;;;;;;;;;5097182;28;20446;-78
2023/04/06 11:57:36;;;;;;;23.33;15.70;;;;;;;;;;5096460;28;20478;-78
2023/04/06 12:00:03;;;;;;;26.13;15.95;;;;;;;;;;5095300;28;20051;-77
2023/04/06 12:02:29;;;;;;;24.48;15.00;;;;;;;;;;5096114;28;20126;-77
2023/04/06 12:04:55;;;;;;;26.73;16.27;;;;;;;;;;5082941;28;20086;-78
2023/04/06 12:07:21;;;;;;;25.23;16.75;;;;;;;;;;5089666;28;20071;-77
2023/04/06 12:09:47;;;;;;;23.55;15.70;;;;;;;;;;5094942;28;20434;-77
2023/04/06 12:12:13;;;;;;;25.85;16.35;;;;;;;;;;5093089;28;20028;-78
2023/04/06 12:14:40;;;;;;;22.35;15.00;;;;;;;;;;5078097;28;20036;-77
2023/04/06 12:17:06;;;;;;;20.52;14.02;;;;;;;;;;5080520;28;20413;-78
2023/04/06 12:19:32;;;;;;;23.52;15.07;;;;;;;;;;5083117;28;20539;-78
2023/04/06 12:21:58;;;;;;;22.90;13.90;;;;;;;;;;5086250;28;20086;-78
2023/04/06 12:24:24;;;;;;;22.00;15.23;;;;;;;;;;5086212;28;20067;-78
2023/04/06 12:26:50;;;;;;;22.73;13.88;;;;;;;;;;5082115;28;20127;-78
2023/04/06 12:29:16;;;;;;;23.58;14.63;;;;;;;;;;5079304;28;20044;-78
2023/04/06 12:31:44;;;;;;;21.52;14.18;;;;;;;;;;5082406;28;20043;-78
2023/04/06 12:34:10;;;;;;;22.02;14.32;;;;;;;;;;5080412;28;20125;-78
2023/04/06 12:36:37;;;;;;;24.33;14.73;;;;;;;;;;5080073;28;20036;-77
2023/04/06 12:39:03;;;;;;;21.30;15.00;;;;;;;;;;5082134;28;20036;-78
2023/04/06 12:41:29;;;;;;;22.40;14.45;;;;;;;;;;5084562;28;20474;-78
2023/04/06 12:43:55;;;;;;;21.13;14.25;;;;;;;;;;5081085;28;20071;-78
2023/04/06 12:46:24;;;;;;;21.08;14.07;;;;;;;;;;5074874;28;20474;-78
2023/04/06 12:48:54;;;;;;;21.45;14.45;;;;;;;;;;5089912;28;20044;-78
2023/04/06 12:51:20;;;;;;;22.23;14.70;;;;;;;;;;5086648;28;20113;-78
2023/04/06 12:53:47;;;;;;;21.65;13.85;;;;;;;;;;5084093;28;20048;-78
2023/04/06 12:56:14;;;;;;;28.23;15.43;;;;;;;;;;5092225;28;20040;-78
2023/04/06 12:58:41;;;;;;;22.38;14.55;;;;;;;;;;5085970;28;20045;-78
2023/04/06 13:01:07;;;;;;;22.80;14.30;;;;;;;;;;5081035;28;20486;-78
2023/04/06 13:03:34;;;;;;;22.42;13.65;;;;;;;;;;5079699;28;20036;-78
2023/04/06 13:06:01;;;;;;;19.60;13.82;;;;;;;;;;5084101;28;20044;-78
2023/04/06 13:08:27;;;;;;;19.05;12.77;;;;;;;;;;5082659;28;20482;-78
2023/04/06 13:10:54;;;;;;;21.75;14.10;;;;;;;;;;5082909;28;20483;-78
2023/04/06 13:13:22;;;;;;;20.25;13.48;;;;;;;;;;5089477;28;20386;-76
2023/04/06 13:15:48;;;;;;;20.13;13.80;;;;;;;;;;5093497;28;20044;-76
2023/04/06 13:18:15;;;;;;;19.80;14.02;;;;;;;;;;5092239;28;20056;-76
2023/04/06 13:20:42;;;;;;;17.08;12.35;;;;;;;;;;5093169;28;20470;-76
2023/04/06 13:23:08;;;;;;;16.58;11.20;;;;;;;;;;5083427;28;20055;-76
2023/04/06 13:25:35;;;;;;;15.43;11.00;;;;;;;;;;5081889;28;20173;-76
2023/04/06 13:28:01;;;;;;;16.30;12.23;;;;;;;;;;5082689;28;20516;-76
2023/04/06 13:30:27;;;;;;;15.35;11.23;;;;;;;;;;5080612;28;20036;-75
2023/04/06 13:32:53;;;;;;;16.95;11.63;;;;;;;;;;5082724;28;20110;-76
2023/04/06 13:35:20;;;;;;;21.20;11.77;;;;;;;;;;5075459;28;20036;-76
2023/04/06 13:37:46;;;;;;;16.83;11.30;;;;;;;;;;5082278;28;20055;-76
2023/04/06 13:40:12;;;;;;;17.88;12.40;;;;;;;;;;5085816;28;20041;-76
2023/04/06 13:42:40;;;;;;;18.52;11.88;;;;;;;;;;5087598;28;20474;-76
2023/04/06 13:45:06;;;;;;;17.65;12.05;;;;;;;;;;5086379;28;20509;-76
2023/04/06 13:47:33;;;;;;;19.13;11.68;;;;;;;;;;5093742;28;20072;-75
2023/04/06 13:49:59;;;;;;;16.38;10.73;;;;;;;;;;5080781;28;20048;-76
2023/04/06 13:52:25;;;;;;;16.80;10.88;;;;;;;;;;5070374;28;20044;-78
2023/04/06 13:54:51;;;;;;;26.63;10.82;;;;;;;;;;5084097;28;20052;-76
2023/04/06 13:57:17;;;;;;;17.65;12.10;;;;;;;;;;5091957;28;20406;-76
2023/04/06 13:59:43;;;;;;;16.33;11.45;;;;;;;;;;5091770;28;20040;-76
2023/04/06 14:02:10;;;;;;;15.93;10.98;;;;;;;;;;5084919;28;20036;-76
2023/04/06 14:04:36;;;;;;;15.35;11.25;;;;;;;;;;5090560;28;20051;-76
2023/04/06 14:07:03;;;;;;;17.75;12.32;;;;;;;;;;5090413;28;20050;-76
2023/04/06 14:09:29;;;;;;;18.70;11.70;;;;;;;;;;5058669;28;20060;-78
2023/04/06 14:11:56;;;;;;;19.02;11.77;;;;;;;;;;5076407;28;20059;-76
2023/04/06 14:14:23;;;;;;;20.15;13.02;;;;;;;;;;5086945;28;20051;-76
2023/04/06 14:16:49;;;;;;;18.23;12.68;;;;;;;;;;5088901;28;20604;-76
2023/04/06 14:19:17;;;;;;;19.92;13.93;;;;;;;;;;5084653;28;20036;-76
2023/04/06 14:21:44;;;;;;;18.75;13.45;;;;;;;;;;5092093;28;20124;-76
2023/04/06 14:24:10;;;;;;;19.60;13.23;;;;;;;;;;5082996;28;20470;-76